createdAt,value
2022-08-24T00:01:15.385Z,96234.25
2022-08-24T00:03:43.880Z,96235.34
2022-08-24T00:06:14.920Z,96238.84
2022-08-24T00:08:43.360Z,96236.16
2022-08-24T00:11:11.432Z,96232.94
2022-08-24T00:13:40.943Z,96234.00
2022-08-24T00:16:09.506Z,96235.69
2022-08-24T00:18:37.736Z,96241.13
2022-08-24T00:21:08.068Z,96234.72
2022-08-24T00:23:36.305Z,96233.97
2022-08-24T00:26:05.037Z,96234.84
2022-08-24T00:28:33.269Z,96237.28
2022-08-24T00:31:03.027Z,96233.84
2022-08-24T00:33:33.502Z,96230.41
2022-08-24T00:36:01.810Z,96228.56
2022-08-24T00:38:30.572Z,96225.41
2022-08-24T00:40:58.715Z,96227.06
2022-08-24T00:43:26.910Z,96226.81
2022-08-24T00:46:04.759Z,96231.47
2022-08-24T00:48:33.719Z,96229.59
2022-08-24T00:51:03.942Z,96236.09
2022-08-24T00:53:33.682Z,96231.34
2022-08-24T00:56:05.544Z,96233.28
2022-08-24T00:58:36.137Z,96231.41
2022-08-24T01:01:07.799Z,96236.53
2022-08-24T01:03:36.069Z,96231.22
2022-08-24T01:06:04.247Z,96230.97
2022-08-24T01:08:32.573Z,96229.94
2022-08-24T01:11:02.006Z,96231.81
2022-08-24T01:13:30.407Z,96225.38
2022-08-24T01:16:00.524Z,96230.53
2022-08-24T01:18:48.220Z,96229.22
2022-08-24T01:21:17.905Z,96227.88
2022-08-24T01:23:48.196Z,96226.53
2022-08-24T01:26:18.892Z,96229.81
2022-08-24T01:28:48.461Z,96227.94
2022-08-24T01:31:18.492Z,96231.47
2022-08-24T01:33:49.736Z,96243.31
2022-08-24T01:36:21.832Z,96244.41
2022-08-24T01:38:58.885Z,96235.03
2022-08-24T01:41:29.057Z,96242.56
2022-08-24T01:43:59.027Z,96244.19
2022-08-24T01:46:29.184Z,96245.25
2022-08-24T01:48:58.095Z,96244.47
2022-08-24T01:51:26.383Z,96238.00
2022-08-24T01:53:54.562Z,96240.97
2022-08-24T01:56:24.110Z,96242.09
2022-08-24T01:58:54.066Z,96244.53
2022-08-24T02:01:22.395Z,96240.53
2022-08-24T02:03:51.750Z,96247.78
2022-08-24T02:06:21.522Z,96244.06
2022-08-24T02:08:49.607Z,96238.69
2022-08-24T02:11:18.063Z,96241.38
2022-08-24T02:13:47.597Z,96246.53
2022-08-24T02:16:15.858Z,96248.69
2022-08-24T02:18:44.215Z,96253.53
2022-08-24T02:21:13.350Z,96256.47
2022-08-24T02:23:42.351Z,96254.34
2022-08-24T02:26:11.217Z,96258.41
2022-08-24T02:28:39.375Z,96260.50
2022-08-24T02:31:09.911Z,96260.78
2022-08-24T02:33:39.113Z,96257.84
2022-08-24T02:36:25.598Z,96258.38
2022-08-24T02:38:55.680Z,96266.47
2022-08-24T02:41:25.698Z,96253.56
2022-08-24T02:43:54.391Z,96257.31
2022-08-24T02:46:25.348Z,96246.63
2022-08-24T02:48:56.457Z,96249.84
2022-08-24T02:51:45.038Z,96249.88
2022-08-24T02:54:18.546Z,96259.25
2022-08-24T02:56:49.150Z,96254.44
2022-08-24T02:59:17.621Z,96264.63
2022-08-24T03:01:49.156Z,96255.25
2022-08-24T03:04:18.892Z,96256.59
2022-08-24T03:06:47.147Z,96263.03
2022-08-24T03:09:15.508Z,96263.88
2022-08-24T03:11:45.354Z,96267.91
2022-08-24T03:14:14.569Z,96271.13
2022-08-24T03:16:42.826Z,96270.56
2022-08-24T03:19:12.653Z,96271.66
2022-08-24T03:21:44.024Z,96266.28
2022-08-24T03:24:13.096Z,96268.72
2022-08-24T03:26:42.710Z,96271.13
2022-08-24T03:29:13.373Z,96263.91
2022-08-24T03:31:44.433Z,96269.53
2022-08-24T03:34:14.254Z,96259.31
2022-08-24T03:36:45.976Z,96267.91
2022-08-24T03:39:15.377Z,96261.22
2022-08-24T03:41:43.655Z,96265.25
2022-08-24T03:44:11.817Z,96266.31
2022-08-24T03:46:40.622Z,96268.47
2022-08-24T03:49:10.030Z,96262.84
2022-08-24T03:51:39.921Z,96264.97
2022-08-24T03:54:13.189Z,96265.78
2022-08-24T03:56:41.692Z,96262.81
2022-08-24T03:59:10.502Z,96265.78
2022-08-24T04:01:41.997Z,96256.41
2022-08-24T04:04:10.626Z,96268.22
2022-08-24T04:06:44.332Z,96265.78
2022-08-24T04:09:12.855Z,96270.88
2022-08-24T04:11:46.000Z,96278.66
2022-08-24T04:14:26.985Z,96270.34
2022-08-24T04:17:08.022Z,96272.78
2022-08-24T04:19:57.549Z,96269.81
2022-08-24T04:22:34.216Z,96263.91
2022-08-24T04:25:09.027Z,96274.38
2022-08-24T04:27:40.014Z,96271.16
2022-08-24T04:30:10.268Z,96275.97
2022-08-24T04:33:02.918Z,96278.38
2022-08-24T04:35:31.891Z,96266.84
2022-08-24T04:38:01.491Z,96278.66
2022-08-24T04:40:30.624Z,96281.09
2022-08-24T04:43:00.786Z,96276.25
2022-08-24T04:45:29.258Z,96272.50
2022-08-24T04:47:57.859Z,96283.50
2022-08-24T04:50:28.094Z,96284.84
2022-08-24T04:52:58.090Z,96292.38
2022-08-24T04:55:28.389Z,96293.41
2022-08-24T04:57:57.450Z,96292.38
2022-08-24T05:00:27.419Z,96297.72
2022-08-24T05:02:55.582Z,96300.41
2022-08-24T05:05:24.587Z,96295.28
2022-08-24T05:07:56.501Z,96302.00
2022-08-24T05:10:24.841Z,96302.53
2022-08-24T05:12:57.647Z,96298.22
2022-08-24T05:15:25.886Z,96306.25
2022-08-24T05:17:53.999Z,96300.06
2022-08-24T05:20:22.834Z,96302.47
2022-08-24T05:22:55.803Z,96304.63
2022-08-24T05:25:25.019Z,96305.97
2022-08-24T05:27:53.077Z,96311.56
2022-08-24T05:30:22.968Z,96317.19
2022-08-24T05:32:51.175Z,96317.16
2022-08-24T05:35:19.844Z,96315.22
2022-08-24T05:37:48.112Z,96311.16
2022-08-24T05:40:18.194Z,96320.81
2022-08-24T05:42:50.961Z,96324.53
2022-08-24T05:45:19.261Z,96322.09
2022-08-24T05:47:48.772Z,96317.47
2022-08-24T05:50:39.943Z,96315.00
2022-08-24T05:53:09.235Z,96320.59
2022-08-24T05:55:40.951Z,96327.78
2022-08-24T05:58:10.965Z,96326.91
2022-08-24T06:00:41.354Z,96333.31
2022-08-24T06:03:14.700Z,96336.16
2022-08-24T06:05:49.065Z,96339.56
2022-08-24T06:08:17.324Z,96344.53
2022-08-24T06:10:47.719Z,96336.63
2022-08-24T06:13:16.004Z,96347.56
2022-08-24T06:15:54.961Z,96344.97
2022-08-24T06:18:35.413Z,96351.03
2022-08-24T06:21:07.434Z,96352.72
2022-08-24T06:23:35.753Z,96356.38
2022-08-24T06:26:23.305Z,96347.56
2022-08-24T06:28:52.134Z,96349.50
2022-08-24T06:31:22.317Z,96357.13
2022-08-24T06:33:55.347Z,96346.38
2022-08-24T06:36:23.708Z,96348.06
2022-08-24T06:38:51.806Z,96339.19
2022-08-24T06:41:20.683Z,96346.28
2022-08-24T06:43:49.527Z,96342.22
2022-08-24T06:46:20.883Z,96344.06
2022-08-24T06:48:52.991Z,96345.31
2022-08-24T06:51:23.512Z,96340.69
2022-08-24T06:53:52.112Z,96349.72
2022-08-24T06:56:20.363Z,96350.47
2022-08-24T06:58:48.757Z,96348.34
2022-08-24T07:01:22.548Z,96356.97
2022-08-24T07:03:51.645Z,96357.38
2022-08-24T07:06:41.088Z,96357.81
2022-08-24T07:09:10.208Z,96358.22
2022-08-24T07:11:38.768Z,96364.13
2022-08-24T07:14:07.915Z,96358.00
2022-08-24T07:16:37.412Z,96358.47
2022-08-24T07:19:06.211Z,96368.13
2022-08-24T07:21:34.402Z,96362.25
2022-08-24T07:24:07.129Z,96357.63
2022-08-24T07:26:39.704Z,96360.09
2022-08-24T07:29:30.353Z,96366.41
2022-08-24T07:31:58.538Z,96360.28
2022-08-24T07:34:38.376Z,96364.66
2022-08-24T07:37:08.204Z,96369.56
2022-08-24T07:39:40.940Z,96363.28
2022-08-24T07:42:15.868Z,96365.09
2022-08-24T07:44:46.963Z,96372.50
2022-08-24T07:47:37.029Z,96382.97
2022-08-24T07:50:06.335Z,96373.75
2022-08-24T07:52:34.824Z,96375.88
2022-08-24T07:55:05.649Z,96377.00
2022-08-24T07:57:39.517Z,96370.63
2022-08-24T08:00:09.565Z,96377.00
2022-08-24T08:02:46.541Z,96373.97
2022-08-24T08:05:16.693Z,96378.28
2022-08-24T08:07:52.056Z,96384.34
2022-08-24T08:10:23.479Z,96386.09
2022-08-24T08:12:53.555Z,96379.50
2022-08-24T08:15:21.895Z,96375.97
2022-08-24T08:18:02.824Z,96382.69
2022-08-24T08:20:32.161Z,96378.34
2022-08-24T08:23:18.040Z,96375.72
2022-08-24T08:26:06.530Z,96373.50
2022-08-24T08:29:01.063Z,96372.63
2022-08-24T08:31:29.643Z,96377.16
2022-08-24T08:34:02.853Z,96373.28
2022-08-24T08:36:31.564Z,96369.19
2022-08-24T08:39:00.210Z,96369.47
2022-08-24T08:42:05.244Z,96374.88
2022-08-24T08:44:52.271Z,96372.50
2022-08-24T08:48:00.033Z,96375.88
2022-08-24T08:50:32.852Z,96371.41
2022-08-24T08:53:37.294Z,96385.53
2022-08-24T08:56:11.620Z,96385.69
2022-08-24T08:58:53.788Z,96385.94
2022-08-24T09:01:35.294Z,96391.38
2022-08-24T09:04:38.401Z,96391.13
2022-08-24T09:07:16.815Z,96392.56
2022-08-24T09:10:02.331Z,96385.28
2022-08-24T09:12:38.299Z,96388.19
2022-08-24T09:15:21.669Z,96393.91
2022-08-24T09:17:58.866Z,96400.56
2022-08-24T09:20:42.779Z,96387.78
2022-08-24T09:23:15.683Z,96386.19
2022-08-24T09:25:47.487Z,96387.94
2022-08-24T09:28:22.839Z,96391.16
2022-08-24T09:31:28.440Z,96395.03
2022-08-24T09:34:08.523Z,96385.00
2022-08-24T09:36:46.045Z,96390.31
2022-08-24T09:39:24.827Z,96383.00
2022-08-24T09:42:10.762Z,96390.13
2022-08-24T09:45:05.832Z,96387.56
2022-08-24T09:47:53.566Z,96388.50
2022-08-24T09:51:03.208Z,96381.00
2022-08-24T09:54:00.262Z,96372.78
2022-08-24T09:56:38.836Z,96374.09
2022-08-24T09:59:21.736Z,96380.22
2022-08-24T10:01:54.194Z,96374.97
2022-08-24T10:04:26.761Z,96380.72
2022-08-24T10:07:00.999Z,96381.00
2022-08-24T10:09:59.771Z,96377.78
2022-08-24T10:12:36.087Z,96376.22
2022-08-24T10:15:06.253Z,96370.06
2022-08-24T10:17:44.031Z,96369.66
2022-08-24T10:20:19.620Z,96372.34
2022-08-24T10:23:12.467Z,96367.16
2022-08-24T10:25:42.048Z,96365.34
2022-08-24T10:28:56.830Z,96368.72
2022-08-24T10:31:26.670Z,96366.84
2022-08-24T10:34:02.042Z,96361.88
2022-08-24T10:36:43.284Z,96368.19
2022-08-24T10:39:40.358Z,96360.66
2022-08-24T10:42:53.282Z,96359.06
2022-08-24T10:45:56.383Z,96360.53
2022-08-24T10:48:39.161Z,96370.25
2022-08-24T10:51:11.135Z,96356.44
2022-08-24T10:53:41.020Z,96363.47
2022-08-24T10:56:12.519Z,96366.28
2022-08-24T10:58:53.259Z,96361.94
2022-08-24T11:01:26.668Z,96359.22
2022-08-24T11:03:58.308Z,96354.69
2022-08-24T11:06:28.149Z,96357.09
2022-08-24T11:09:02.388Z,96368.34
2022-08-24T11:11:33.967Z,96365.97
2022-08-24T11:14:03.497Z,96363.25
2022-08-24T11:16:35.219Z,96364.66
2022-08-24T11:19:04.788Z,96362.56
2022-08-24T11:21:48.966Z,96367.06
2022-08-24T11:24:29.462Z,96361.44
2022-08-24T11:27:00.395Z,96359.63
2022-08-24T11:29:31.612Z,96366.94
2022-08-24T11:32:00.204Z,96364.09
2022-08-24T11:34:34.340Z,96357.09
2022-08-24T11:37:02.483Z,96368.03
2022-08-24T11:39:33.559Z,96361.91
2022-08-24T11:42:09.300Z,96357.81
2022-08-24T11:44:43.434Z,96367.66
2022-08-24T11:47:30.629Z,96359.25
2022-08-24T11:50:02.360Z,96367.13
2022-08-24T11:52:37.729Z,96362.75
2022-08-24T11:55:08.864Z,96367.28
2022-08-24T11:57:47.419Z,96357.13
2022-08-24T12:00:18.726Z,96354.75
2022-08-24T12:02:52.768Z,96354.69
2022-08-24T12:05:25.510Z,96357.56
2022-08-24T12:08:00.900Z,96355.03
2022-08-24T12:10:33.004Z,96354.25
2022-08-24T12:13:05.921Z,96351.13
2022-08-24T12:15:49.958Z,96356.31
2022-08-24T12:18:25.705Z,96350.38
2022-08-24T12:20:53.809Z,96349.97
2022-08-24T12:23:25.397Z,96345.56
2022-08-24T12:26:05.238Z,96349.38
2022-08-24T12:28:37.718Z,96351.94
2022-08-24T12:31:11.294Z,96351.63
2022-08-24T12:33:39.428Z,96347.13
2022-08-24T12:36:12.240Z,96338.44
2022-08-24T12:38:42.210Z,96342.63
2022-08-24T12:41:19.313Z,96348.91
2022-08-24T12:43:50.705Z,96354.00
2022-08-24T12:46:22.112Z,96361.50
2022-08-24T12:48:55.117Z,96351.56
2022-08-24T12:51:25.946Z,96345.19
2022-08-24T12:54:05.077Z,96339.28
2022-08-24T12:56:41.895Z,96343.63
2022-08-24T12:59:18.481Z,96347.63
2022-08-24T13:01:47.758Z,96334.56
2022-08-24T13:04:19.646Z,96341.91
2022-08-24T13:06:51.160Z,96335.13
2022-08-24T13:09:30.905Z,96337.25
2022-08-24T13:12:00.893Z,96337.25
2022-08-24T13:14:30.634Z,96332.75
2022-08-24T13:17:13.898Z,96336.44
2022-08-24T13:19:43.907Z,96340.53
2022-08-24T13:22:40.214Z,96343.16
2022-08-24T13:25:47.331Z,96336.03
2022-08-24T13:28:44.203Z,96330.44
2022-08-24T13:31:26.499Z,96327.91
2022-08-24T13:33:57.196Z,96335.25
2022-08-24T13:36:55.966Z,96330.41
2022-08-24T13:39:58.254Z,96328.09
2022-08-24T13:42:58.213Z,96335.06
2022-08-24T13:45:28.212Z,96328.19
2022-08-24T13:48:21.432Z,96328.44
2022-08-24T13:51:01.246Z,96332.66
2022-08-24T13:53:44.542Z,96322.50
2022-08-24T13:56:22.622Z,96319.09
2022-08-24T13:59:02.737Z,96318.06
2022-08-24T14:01:37.505Z,96320.09
2022-08-24T14:04:11.263Z,96325.38
2022-08-24T14:06:40.835Z,96326.50
2022-08-24T14:09:36.118Z,96325.16
2022-08-24T14:12:18.141Z,96324.28
2022-08-24T14:14:59.395Z,96326.50
2022-08-24T14:17:49.445Z,96333.66
2022-08-24T14:21:09.845Z,96334.81
2022-08-24T14:23:52.841Z,96340.06
2022-08-24T14:26:58.166Z,96336.22
2022-08-24T14:29:34.923Z,96336.03
2022-08-24T14:32:33.135Z,96327.19
2022-08-24T14:35:18.516Z,96328.97
2022-08-24T14:37:59.915Z,96321.03
2022-08-24T14:40:37.037Z,96321.50
2022-08-24T14:43:16.395Z,96319.66
2022-08-24T14:45:49.156Z,96323.50
2022-08-24T14:48:28.788Z,96316.78
2022-08-24T14:51:00.153Z,96314.47
2022-08-24T14:53:47.425Z,96312.91
2022-08-24T14:56:25.103Z,96317.50
2022-08-24T14:58:58.321Z,96321.31
2022-08-24T15:01:42.180Z,96314.47
2022-08-24T15:04:27.504Z,96311.28
2022-08-24T15:07:26.598Z,96308.78
2022-08-24T15:09:55.798Z,96309.03
2022-08-24T15:12:34.806Z,96304.53
2022-08-24T15:15:06.158Z,96305.16
2022-08-24T15:17:41.220Z,96304.72
2022-08-24T15:20:10.720Z,96297.38
2022-08-24T15:22:43.950Z,96299.63
2022-08-24T15:25:14.912Z,96301.22
2022-08-24T15:27:51.260Z,96302.00
2022-08-24T15:30:21.867Z,96300.06
2022-08-24T15:32:53.157Z,96298.81
2022-08-24T15:35:26.768Z,96291.63
2022-08-24T15:37:55.028Z,96293.47
2022-08-24T15:40:27.025Z,96291.34
2022-08-24T15:42:56.992Z,96300.22
2022-08-24T15:45:26.240Z,96291.69
2022-08-24T15:47:54.640Z,96298.59
2022-08-24T15:50:25.518Z,96297.81
2022-08-24T15:52:59.311Z,96292.59
2022-08-24T15:55:31.915Z,96291.44
2022-08-24T15:58:13.846Z,96284.38
2022-08-24T16:00:59.191Z,96292.47
2022-08-24T16:03:29.697Z,96289.84
2022-08-24T16:05:57.952Z,96289.94
2022-08-24T16:08:26.085Z,96290.75
2022-08-24T16:10:55.266Z,96290.19
2022-08-24T16:13:29.494Z,96292.38
2022-08-24T16:16:03.766Z,96283.97
2022-08-24T16:18:46.184Z,96285.22
2022-08-24T16:21:16.378Z,96283.97
2022-08-24T16:23:45.481Z,96288.50
2022-08-24T16:26:21.877Z,96290.06
2022-08-24T16:28:51.768Z,96289.84
2022-08-24T16:31:47.588Z,96286.03
2022-08-24T16:34:24.360Z,96290.81
2022-08-24T16:36:52.710Z,96292.50
2022-08-24T16:39:21.226Z,96287.69
2022-08-24T16:41:50.102Z,96292.41
2022-08-24T16:44:19.782Z,96289.53
2022-08-24T16:46:54.157Z,96285.53
2022-08-24T16:49:22.341Z,96287.56
2022-08-24T16:51:50.507Z,96292.09
2022-08-24T16:54:19.104Z,96291.94
2022-08-24T16:56:47.233Z,96286.47
2022-08-24T16:59:16.932Z,96286.69
2022-08-24T17:01:48.629Z,96286.91
2022-08-24T17:04:16.758Z,96285.16
2022-08-24T17:06:48.052Z,96278.13
2022-08-24T17:09:17.613Z,96284.72
2022-08-24T17:11:47.084Z,96287.97
2022-08-24T17:14:15.237Z,96289.78
2022-08-24T17:16:43.539Z,96285.78
2022-08-24T17:19:15.396Z,96281.19
2022-08-24T17:21:45.637Z,96287.19
2022-08-24T17:24:13.895Z,96279.06
2022-08-24T17:26:44.963Z,96282.31
2022-08-24T17:29:18.570Z,96284.78
2022-08-24T17:31:49.742Z,96284.53
2022-08-24T17:34:21.282Z,96287.06
2022-08-24T17:36:49.748Z,96291.13
2022-08-24T17:39:17.826Z,96295.97
2022-08-24T17:41:45.955Z,96291.03
2022-08-24T17:44:16.588Z,96293.63
2022-08-24T17:46:44.974Z,96296.53
2022-08-24T17:49:13.450Z,96300.13
2022-08-24T17:51:42.961Z,96299.00
2022-08-24T17:54:11.169Z,96298.72
2022-08-24T17:56:41.110Z,96297.31
2022-08-24T17:59:23.627Z,96310.63
2022-08-24T18:01:52.534Z,96311.13
2022-08-24T18:04:21.520Z,96306.19
2022-08-24T18:06:51.527Z,96303.00
2022-08-24T18:09:28.803Z,96312.78
2022-08-24T18:11:57.767Z,96314.06
2022-08-24T18:14:26.320Z,96315.53
2022-08-24T18:16:57.111Z,96318.72
2022-08-24T18:19:26.454Z,96315.88
2022-08-24T18:21:55.915Z,96326.44
2022-08-24T18:24:25.009Z,96327.09
2022-08-24T18:26:53.152Z,96334.13
2022-08-24T18:29:22.092Z,96340.34
2022-08-24T18:31:50.450Z,96341.13
2022-08-24T18:34:21.032Z,96346.25
2022-08-24T18:36:49.191Z,96341.13
2022-08-24T18:39:18.742Z,96340.31
2022-08-24T18:41:49.243Z,96332.94
2022-08-24T18:44:18.396Z,96337.22
2022-08-24T18:46:47.819Z,96336.06
2022-08-24T18:49:16.201Z,96345.19
2022-08-24T18:51:44.468Z,96346.75
2022-08-24T18:54:14.155Z,96346.72
2022-08-24T18:56:44.330Z,96343.97
2022-08-24T18:59:13.935Z,96349.03
2022-08-24T19:01:55.955Z,96347.88
2022-08-24T19:04:25.849Z,96350.25
2022-08-24T19:07:01.005Z,96361.84
2022-08-24T19:09:33.991Z,96355.25
2022-08-24T19:12:04.227Z,96352.69
2022-08-24T19:14:32.726Z,96352.78
2022-08-24T19:17:00.809Z,96354.84
2022-08-24T19:19:28.944Z,96362.00
2022-08-24T19:21:57.392Z,96357.22
2022-08-24T19:24:26.864Z,96357.63
2022-08-24T19:26:55.193Z,96346.09
2022-08-24T19:29:54.030Z,96348.63
2022-08-24T19:32:24.210Z,96351.78
2022-08-24T19:34:52.566Z,96345.34
2022-08-24T19:37:20.827Z,96347.91
2022-08-24T19:39:50.902Z,96349.91
2022-08-24T19:42:19.176Z,96341.09
2022-08-24T19:45:20.940Z,96345.50
2022-08-24T19:47:49.120Z,96343.22
2022-08-24T19:50:21.250Z,96339.81
2022-08-24T19:52:49.859Z,96344.56
2022-08-24T19:55:18.028Z,96340.25
2022-08-24T19:57:49.693Z,96336.44
2022-08-24T20:00:28.206Z,96340.06
2022-08-24T20:02:57.825Z,96338.13
2022-08-24T20:05:27.826Z,96341.47
2022-08-24T20:07:56.311Z,96344.28
2022-08-24T20:10:24.606Z,96339.78
2022-08-24T20:12:53.306Z,96342.28
2022-08-24T20:15:22.239Z,96338.91
2022-08-24T20:17:51.798Z,96341.72
2022-08-24T20:20:21.835Z,96341.31
2022-08-24T20:22:49.942Z,96349.25
2022-08-24T20:25:18.669Z,96345.84
2022-08-24T20:27:47.575Z,96345.66
2022-08-24T20:30:17.787Z,96355.78
2022-08-24T20:32:47.923Z,96356.38
2022-08-24T20:35:17.887Z,96350.78
2022-08-24T20:37:46.234Z,96351.69
2022-08-24T20:40:15.987Z,96350.66
2022-08-24T20:42:44.589Z,96344.53
2022-08-24T20:45:13.999Z,96348.44
2022-08-24T20:47:44.997Z,96344.72
2022-08-24T20:50:13.316Z,96349.84
2022-08-24T20:52:43.255Z,96342.59
2022-08-24T20:55:12.468Z,96344.91
2022-08-24T20:57:41.306Z,96346.13
2022-08-24T21:00:11.158Z,96345.38
2022-08-24T21:02:39.588Z,96355.81
2022-08-24T21:05:08.542Z,96348.59
2022-08-24T21:07:36.633Z,96349.25
2022-08-24T21:10:07.716Z,96349.38
2022-08-24T21:12:35.898Z,96340.56
2022-08-24T21:15:04.026Z,96346.25
2022-08-24T21:17:32.236Z,96341.44
2022-08-24T21:20:00.253Z,96349.31
2022-08-24T21:22:28.692Z,96351.53
2022-08-24T21:24:56.745Z,96354.81
2022-08-24T21:27:26.321Z,96351.88
2022-08-24T21:29:54.464Z,96351.47
2022-08-24T21:32:39.875Z,96342.84
2022-08-24T21:35:08.659Z,96347.75
2022-08-24T21:37:40.325Z,96350.75
2022-08-24T21:40:09.906Z,96353.22
2022-08-24T21:42:39.582Z,96360.81
2022-08-24T21:45:09.229Z,96341.97
2022-08-24T21:47:37.421Z,96347.44
2022-08-24T21:50:06.535Z,96348.25
2022-08-24T21:52:34.640Z,96350.66
2022-08-24T21:55:02.785Z,96349.34
2022-08-24T21:57:30.959Z,96348.06
2022-08-24T22:00:00.521Z,96348.34
2022-08-24T22:02:29.615Z,96340.53
2022-08-24T22:04:58.059Z,96347.03
2022-08-24T22:07:26.227Z,96344.91
2022-08-24T22:09:54.391Z,96351.09
2022-08-24T22:12:22.578Z,96345.78
2022-08-24T22:14:50.798Z,96343.38
2022-08-24T22:17:20.600Z,96339.88
2022-08-24T22:19:48.730Z,96340.09
2022-08-24T22:22:17.086Z,96335.78
2022-08-24T22:24:45.215Z,96332.06
2022-08-24T22:27:13.333Z,96328.34
2022-08-24T22:29:41.411Z,96330.03
2022-08-24T22:32:09.751Z,96329.50
2022-08-24T22:34:39.231Z,96329.50
2022-08-24T22:37:07.375Z,96332.28
2022-08-24T22:39:36.711Z,96336.38
2022-08-24T22:42:04.918Z,96335.56
2022-08-24T22:44:33.808Z,96325.03
2022-08-24T22:47:03.564Z,96326.13
2022-08-24T22:49:37.269Z,96323.16
2022-08-24T22:52:07.269Z,96323.16
2022-08-24T22:54:35.604Z,96321.25
2022-08-24T22:57:03.706Z,96320.16
2022-08-24T22:59:35.029Z,96321.25
2022-08-24T23:02:03.614Z,96326.66
2022-08-24T23:04:33.564Z,96314.47
2022-08-24T23:07:02.045Z,96314.63
2022-08-24T23:09:36.646Z,96320.97
2022-08-24T23:12:13.676Z,96313.38
2022-08-24T23:14:41.774Z,96315.97
2022-08-24T23:17:09.920Z,96307.88
2022-08-24T23:19:55.541Z,96307.81
2022-08-24T23:22:23.644Z,96302.13
2022-08-24T23:24:55.632Z,96307.22
2022-08-24T23:27:23.740Z,96302.13
2022-08-24T23:29:51.807Z,96299.91
2022-08-24T23:32:20.020Z,96295.31
2022-08-24T23:34:48.266Z,96288.63
2022-08-24T23:37:16.646Z,96295.41
2022-08-24T23:39:45.156Z,96294.38
2022-08-24T23:42:14.703Z,96290.16
2022-08-24T23:44:42.836Z,96287.53
2022-08-24T23:47:10.928Z,96290.03
2022-08-24T23:49:39.787Z,96290.09
2022-08-24T23:52:08.178Z,96296.38
2022-08-24T23:54:36.397Z,96291.03
2022-08-24T23:57:08.625Z,96293.53
2022-08-24T23:59:38.147Z,96284.69
